sensor_id;sensor_type;location;lat;lon;timestamp;pressure;altitude;pressure_sealevel;temperature;humidity
20612;BME280;10465;42.686;23.364;2024-03-23T00:51:17;95040.31;;;8.29;58.06
20612;BME280;10465;42.686;23.364;2024-03-23T00:53:42;95031.56;;;8.34;58.01
20612;BME280;10465;42.686;23.364;2024-03-23T00:56:08;95008.25;;;8.03;58.30
20612;BME280;10465;42.686;23.364;2024-03-23T00:58:33;95029.28;;;8.08;59.09
20612;BME280;10465;42.686;23.364;2024-03-23T01:00:58;95041.25;;;8.20;58.66
20612;BME280;10465;42.686;23.364;2024-03-23T01:03:24;95024.06;;;8.22;58.74
20612;BME280;10465;42.686;23.364;2024-03-23T01:05:49;94964.72;;;7.68;59.10
20612;BME280;10465;42.686;23.364;2024-03-23T01:08:15;95034.91;;;8.21;59.25
20612;BME280;10465;42.686;23.364;2024-03-23T01:10:40;95007.91;;;7.91;59.35
20612;BME280;10465;42.686;23.364;2024-03-23T01:13:06;95010.38;;;8.01;58.96
20612;BME280;10465;42.686;23.364;2024-03-23T01:15:31;95036.09;;;8.09;59.56
20612;BME280;10465;42.686;23.364;2024-03-23T01:17:57;95021.28;;;8.13;59.18
20612;BME280;10465;42.686;23.364;2024-03-23T01:20:22;94970.44;;;7.94;58.55
20612;BME280;10465;42.686;23.364;2024-03-23T01:22:48;95009.03;;;8.04;59.30
20612;BME280;10465;42.686;23.364;2024-03-23T01:25:13;94995.84;;;7.85;59.24
20612;BME280;10465;42.686;23.364;2024-03-23T01:27:39;95030.06;;;7.90;59.53
20612;BME280;10465;42.686;23.364;2024-03-23T01:30:04;95002.44;;;7.63;60.31
20612;BME280;10465;42.686;23.364;2024-03-23T01:32:30;95027.19;;;7.86;59.52
20612;BME280;10465;42.686;23.364;2024-03-23T01:34:55;95019.13;;;7.78;60.17
20612;BME280;10465;42.686;23.364;2024-03-23T01:37:21;95032.53;;;7.57;61.20
20612;BME280;10465;42.686;23.364;2024-03-23T01:39:46;94947.22;;;7.10;61.24
20612;BME280;10465;42.686;23.364;2024-03-23T01:42:12;95033.75;;;7.65;61.14
20612;BME280;10465;42.686;23.364;2024-03-23T01:44:37;95031.47;;;7.82;60.73
20612;BME280;10465;42.686;23.364;2024-03-23T01:47:03;95011.72;;;7.80;59.81
20612;BME280;10465;42.686;23.364;2024-03-23T01:49:28;95007.47;;;7.60;59.80
20612;BME280;10465;42.686;23.364;2024-03-23T01:51:54;95020.31;;;7.66;59.35
20612;BME280;10465;42.686;23.364;2024-03-23T01:54:20;94973.88;;;7.28;60.22
20612;BME280;10465;42.686;23.364;2024-03-23T01:56:46;95017.53;;;7.58;60.28
20612;BME280;10465;42.686;23.364;2024-03-23T01:59:12;95025.38;;;7.63;60.66
20612;BME280;10465;42.686;23.364;2024-03-23T02:01:38;95031.13;;;7.41;60.83
20612;BME280;10465;42.686;23.364;2024-03-23T02:04:04;95027.25;;;7.57;60.80
20612;BME280;10465;42.686;23.364;2024-03-23T02:06:30;95034.44;;;7.52;61.15
20612;BME280;10465;42.686;23.364;2024-03-23T02:08:55;95038.94;;;7.51;60.48
20612;BME280;10465;42.686;23.364;2024-03-23T02:11:21;95014.72;;;7.49;60.49
20612;BME280;10465;42.686;23.364;2024-03-23T02:13:47;95023.53;;;7.63;59.68
20612;BME280;10465;42.686;23.364;2024-03-23T02:16:12;95036.25;;;7.56;60.38
20612;BME280;10465;42.686;23.364;2024-03-23T02:18:38;95026.63;;;7.47;60.48
20612;BME280;10465;42.686;23.364;2024-03-23T02:21:04;94988.19;;;7.22;60.28
20612;BME280;10465;42.686;23.364;2024-03-23T02:23:29;95035.75;;;7.30;60.89
20612;BME280;10465;42.686;23.364;2024-03-23T02:25:55;95030.25;;;7.27;60.94
20612;BME280;10465;42.686;23.364;2024-03-23T02:28:20;95033.16;;;7.25;61.49
20612;BME280;10465;42.686;23.364;2024-03-23T02:30:50;95041.28;;;7.29;61.73
20612;BME280;10465;42.686;23.364;2024-03-23T02:33:15;95040.78;;;7.27;61.79
20612;BME280;10465;42.686;23.364;2024-03-23T02:35:41;95034.44;;;7.28;62.09
20612;BME280;10465;42.686;23.364;2024-03-23T02:38:06;95016.22;;;7.07;62.66
20612;BME280;10465;42.686;23.364;2024-03-23T02:40:32;95039.47;;;7.24;63.04
20612;BME280;10465;42.686;23.364;2024-03-23T02:42:57;95025.81;;;7.22;63.03
20612;BME280;10465;42.686;23.364;2024-03-23T02:45:23;95027.69;;;7.46;62.16
20612;BME280;10465;42.686;23.364;2024-03-23T02:47:48;95027.63;;;7.27;63.03
20612;BME280;10465;42.686;23.364;2024-03-23T02:50:20;95032.94;;;7.22;63.31
20612;BME280;10465;42.686;23.364;2024-03-23T02:52:45;95027.22;;;7.14;63.82
20612;BME280;10465;42.686;23.364;2024-03-23T02:55:11;95029.78;;;7.19;63.16
20612;BME280;10465;42.686;23.364;2024-03-23T02:57:36;95017.63;;;7.24;62.93
20612;BME280;10465;42.686;23.364;2024-03-23T03:00:02;95000.38;;;6.83;63.83
20612;BME280;10465;42.686;23.364;2024-03-23T03:02:28;95017.13;;;6.98;63.71
20612;BME280;10465;42.686;23.364;2024-03-23T03:04:53;94984.72;;;6.68;64.38
20612;BME280;10465;42.686;23.364;2024-03-23T03:07:19;95015.03;;;6.94;64.22
20612;BME280;10465;42.686;23.364;2024-03-23T03:09:44;95006.00;;;6.77;63.87
20612;BME280;10465;42.686;23.364;2024-03-23T03:12:10;94994.34;;;6.54;65.28
20612;BME280;10465;42.686;23.364;2024-03-23T03:14:35;95015.34;;;6.59;65.43
20612;BME280;10465;42.686;23.364;2024-03-23T03:17:00;95015.13;;;6.50;65.72
20612;BME280;10465;42.686;23.364;2024-03-23T03:19:26;95008.91;;;6.36;66.56
20612;BME280;10465;42.686;23.364;2024-03-23T03:21:52;95007.00;;;6.12;66.77
20612;BME280;10465;42.686;23.364;2024-03-23T03:24:18;95007.69;;;6.28;66.74
20612;BME280;10465;42.686;23.364;2024-03-23T03:26:43;95012.47;;;6.21;66.56
20612;BME280;10465;42.686;23.364;2024-03-23T03:29:09;95013.53;;;6.20;66.73
20612;BME280;10465;42.686;23.364;2024-03-23T03:31:34;95010.09;;;6.19;66.86
20612;BME280;10465;42.686;23.364;2024-03-23T03:34:00;95041.84;;;6.28;67.52
20612;BME280;10465;42.686;23.364;2024-03-23T03:36:25;95033.66;;;6.35;67.40
20612;BME280;10465;42.686;23.364;2024-03-23T03:38:50;95035.19;;;6.41;66.99
20612;BME280;10465;42.686;23.364;2024-03-23T03:41:16;94960.06;;;5.96;66.50
20612;BME280;10465;42.686;23.364;2024-03-23T03:43:41;95018.28;;;6.13;66.92
20612;BME280;10465;42.686;23.364;2024-03-23T03:46:07;95010.50;;;5.98;67.65
20612;BME280;10465;42.686;23.364;2024-03-23T03:48:36;95040.56;;;6.26;67.85
20612;BME280;10465;42.686;23.364;2024-03-23T03:51:01;95041.03;;;6.28;67.77
20612;BME280;10465;42.686;23.364;2024-03-23T03:53:27;95038.16;;;6.29;67.32
20612;BME280;10465;42.686;23.364;2024-03-23T03:55:52;95038.22;;;6.24;67.37
20612;BME280;10465;42.686;23.364;2024-03-23T03:58:18;95036.31;;;6.30;67.40
20612;BME280;10465;42.686;23.364;2024-03-23T04:00:43;95037.63;;;6.32;67.01
20612;BME280;10465;42.686;23.364;2024-03-23T04:03:09;95032.41;;;6.22;67.37
20612;BME280;10465;42.686;23.364;2024-03-23T04:05:34;95035.56;;;6.24;67.06
20612;BME280;10465;42.686;23.364;2024-03-23T04:08:00;95029.25;;;6.25;67.45
20612;BME280;10465;42.686;23.364;2024-03-23T04:10:25;94982.41;;;5.83;67.24
20612;BME280;10465;42.686;23.364;2024-03-23T04:12:52;95040.13;;;6.03;67.57
20612;BME280;10465;42.686;23.364;2024-03-23T04:15:19;95026.25;;;5.87;68.47
20612;BME280;10465;42.686;23.364;2024-03-23T04:17:44;95046.44;;;6.07;68.74
20612;BME280;10465;42.686;23.364;2024-03-23T04:20:10;95041.53;;;5.96;68.20
20612;BME280;10465;42.686;23.364;2024-03-23T04:22:39;95023.66;;;5.92;67.97
20612;BME280;10465;42.686;23.364;2024-03-23T04:25:05;95042.19;;;6.16;67.72
20612;BME280;10465;42.686;23.364;2024-03-23T04:27:38;95031.47;;;6.08;67.67
20612;BME280;10465;42.686;23.364;2024-03-23T04:30:04;95029.69;;;5.93;67.63
20612;BME280;10465;42.686;23.364;2024-03-23T04:32:35;95019.69;;;5.95;67.76
20612;BME280;10465;42.686;23.364;2024-03-23T04:35:00;95032.28;;;5.98;67.39
20612;BME280;10465;42.686;23.364;2024-03-23T04:37:25;95031.53;;;5.92;67.72
20612;BME280;10465;42.686;23.364;2024-03-23T04:39:51;95036.81;;;5.92;67.92
20612;BME280;10465;42.686;23.364;2024-03-23T04:42:16;95052.78;;;5.91;68.62
20612;BME280;10465;42.686;23.364;2024-03-23T04:44:42;95053.06;;;5.94;68.37
20612;BME280;10465;42.686;23.364;2024-03-23T04:47:07;95039.44;;;5.82;68.34
20612;BME280;10465;42.686;23.364;2024-03-23T04:49:33;95061.47;;;5.91;67.91
20612;BME280;10465;42.686;23.364;2024-03-23T04:51:58;95054.31;;;6.12;66.83
20612;BME280;10465;42.686;23.364;2024-03-23T04:54:24;95054.41;;;5.92;67.36
20612;BME280;10465;42.686;23.364;2024-03-23T04:56:49;95059.06;;;6.05;66.90
20612;BME280;10465;42.686;23.364;2024-03-23T04:59:15;95056.63;;;6.19;67.08
20612;BME280;10465;42.686;23.364;2024-03-23T05:01:40;95054.88;;;6.04;67.56
20612;BME280;10465;42.686;23.364;2024-03-23T05:04:07;95061.63;;;6.21;67.45
20612;BME280;10465;42.686;23.364;2024-03-23T05:06:33;95043.69;;;6.28;67.36
20612;BME280;10465;42.686;23.364;2024-03-23T05:08:59;95055.22;;;6.32;67.09
20612;BME280;10465;42.686;23.364;2024-03-23T05:11:25;95061.22;;;6.42;66.15
20612;BME280;10465;42.686;23.364;2024-03-23T05:13:50;95060.19;;;6.38;66.77
20612;BME280;10465;42.686;23.364;2024-03-23T05:16:16;95059.69;;;6.36;66.82
20612;BME280;10465;42.686;23.364;2024-03-23T05:18:41;95029.53;;;6.18;66.99
20612;BME280;10465;42.686;23.364;2024-03-23T05:21:06;95056.78;;;6.38;67.18
20612;BME280;10465;42.686;23.364;2024-03-23T05:23:32;95032.88;;;6.34;66.49
20612;BME280;10465;42.686;23.364;2024-03-23T05:25:57;95008.97;;;6.31;64.92
20612;BME280;10465;42.686;23.364;2024-03-23T05:28:23;95042.41;;;6.64;64.47
20612;BME280;10465;42.686;23.364;2024-03-23T05:30:55;95043.41;;;6.68;64.51
20612;BME280;10465;42.686;23.364;2024-03-23T05:33:21;95053.13;;;6.73;64.47
20612;BME280;10465;42.686;23.364;2024-03-23T05:35:56;95023.16;;;6.69;63.39
20612;BME280;10465;42.686;23.364;2024-03-23T05:38:21;95031.66;;;6.90;62.97
20612;BME280;10465;42.686;23.364;2024-03-23T05:40:57;95046.59;;;6.94;63.40
20612;BME280;10465;42.686;23.364;2024-03-23T05:43:23;95051.16;;;6.84;63.50
20612;BME280;10465;42.686;23.364;2024-03-23T05:45:58;95046.66;;;6.89;63.47
20612;BME280;10465;42.686;23.364;2024-03-23T05:48:27;95049.25;;;6.94;63.08
20612;BME280;10465;42.686;23.364;2024-03-23T05:50:53;95053.19;;;6.97;62.49
20612;BME280;10465;42.686;23.364;2024-03-23T05:53:19;95031.97;;;6.83;62.27
20612;BME280;10465;42.686;23.364;2024-03-23T05:55:48;95053.06;;;7.07;61.52
20612;BME280;10465;42.686;23.364;2024-03-23T05:58:17;95028.72;;;6.91;61.76
20612;BME280;10465;42.686;23.364;2024-03-23T06:00:43;95047.84;;;7.02;62.02
20612;BME280;10465;42.686;23.364;2024-03-23T06:03:09;95049.78;;;6.91;63.01
20612;BME280;10465;42.686;23.364;2024-03-23T06:05:38;95029.91;;;7.09;61.71
20612;BME280;10465;42.686;23.364;2024-03-23T06:08:04;95055.78;;;7.26;60.81
20612;BME280;10465;42.686;23.364;2024-03-23T06:10:29;95028.59;;;7.07;60.78
20612;BME280;10465;42.686;23.364;2024-03-23T06:12:55;95045.13;;;7.12;60.75
20612;BME280;10465;42.686;23.364;2024-03-23T06:15:21;95037.69;;;6.90;61.65
20612;BME280;10465;42.686;23.364;2024-03-23T06:17:47;95034.69;;;7.02;61.85
20612;BME280;10465;42.686;23.364;2024-03-23T06:20:13;95044.47;;;7.26;61.10
20612;BME280;10465;42.686;23.364;2024-03-23T06:22:38;95044.81;;;7.43;61.20
20612;BME280;10465;42.686;23.364;2024-03-23T06:25:04;95045.72;;;7.57;61.48
20612;BME280;10465;42.686;23.364;2024-03-23T06:27:30;95047.44;;;7.43;62.11
20612;BME280;10465;42.686;23.364;2024-03-23T06:29:57;95025.47;;;7.53;61.03
20612;BME280;10465;42.686;23.364;2024-03-23T06:32:23;95038.84;;;7.80;61.26
20612;BME280;10465;42.686;23.364;2024-03-23T06:34:48;95047.13;;;7.92;60.65
20612;BME280;10465;42.686;23.364;2024-03-23T06:37:13;95031.69;;;7.86;60.27
20612;BME280;10465;42.686;23.364;2024-03-23T06:39:39;95039.25;;;8.11;59.51
20612;BME280;10465;42.686;23.364;2024-03-23T06:42:04;95027.56;;;8.17;58.71
20612;BME280;10465;42.686;23.364;2024-03-23T06:44:30;95041.88;;;8.30;58.99
20612;BME280;10465;42.686;23.364;2024-03-23T06:46:56;95049.69;;;8.59;57.80
20612;BME280;10465;42.686;23.364;2024-03-23T06:49:23;95043.38;;;8.74;57.74
20612;BME280;10465;42.686;23.364;2024-03-23T06:51:48;95014.00;;;8.62;56.33
20612;BME280;10465;42.686;23.364;2024-03-23T06:54:14;94998.78;;;8.59;57.27
20612;BME280;10465;42.686;23.364;2024-03-23T06:56:40;95023.31;;;8.92;57.72
20612;BME280;10465;42.686;23.364;2024-03-23T06:59:05;95039.16;;;9.06;56.81
20612;BME280;10465;42.686;23.364;2024-03-23T07:01:30;95007.53;;;8.87;57.15
20612;BME280;10465;42.686;23.364;2024-03-23T07:03:56;95040.78;;;9.21;56.56
20612;BME280;10465;42.686;23.364;2024-03-23T07:06:21;95032.28;;;9.37;55.99
20612;BME280;10465;42.686;23.364;2024-03-23T07:08:47;95027.00;;;9.51;54.71
20612;BME280;10465;42.686;23.364;2024-03-23T07:11:21;95026.59;;;9.58;55.33
20612;BME280;10465;42.686;23.364;2024-03-23T07:13:49;95026.13;;;9.70;54.64
20612;BME280;10465;42.686;23.364;2024-03-23T07:16:15;95026.00;;;9.75;53.87
20612;BME280;10465;42.686;23.364;2024-03-23T07:18:41;95025.13;;;9.79;53.56
20612;BME280;10465;42.686;23.364;2024-03-23T07:21:06;95023.22;;;10.07;52.67
20612;BME280;10465;42.686;23.364;2024-03-23T07:23:32;95020.56;;;10.21;52.61
20612;BME280;10465;42.686;23.364;2024-03-23T07:26:02;95003.28;;;10.24;52.14
20612;BME280;10465;42.686;23.364;2024-03-23T07:28:29;95017.06;;;10.48;51.41
20612;BME280;10465;42.686;23.364;2024-03-23T07:33:29;95008.03;;;10.72;49.89
20612;BME280;10465;42.686;23.364;2024-03-23T07:35:54;95011.25;;;10.82;50.39
20612;BME280;10465;42.686;23.364;2024-03-23T07:38:20;95000.81;;;10.86;50.88
20612;BME280;10465;42.686;23.364;2024-03-23T07:40:45;95008.03;;;10.94;50.48
20612;BME280;10465;42.686;23.364;2024-03-23T07:43:11;94978.69;;;10.82;50.90
20612;BME280;10465;42.686;23.364;2024-03-23T07:45:36;94998.66;;;11.19;49.33
20612;BME280;10465;42.686;23.364;2024-03-23T07:48:03;94948.09;;;10.76;49.83
20612;BME280;10465;42.686;23.364;2024-03-23T07:50:29;95004.47;;;11.30;50.25
20612;BME280;10465;42.686;23.364;2024-03-23T07:52:54;94999.03;;;11.35;49.00
20612;BME280;10465;42.686;23.364;2024-03-23T07:55:20;94993.28;;;11.42;48.97
20612;BME280;10465;42.686;23.364;2024-03-23T07:57:46;94995.66;;;11.52;49.64
20612;BME280;10465;42.686;23.364;2024-03-23T08:00:12;94978.31;;;11.37;48.83
20612;BME280;10465;42.686;23.364;2024-03-23T08:02:38;94998.03;;;11.62;47.64
20612;BME280;10465;42.686;23.364;2024-03-23T08:05:04;94947.78;;;11.48;46.92
20612;BME280;10465;42.686;23.364;2024-03-23T08:07:29;94999.88;;;12.01;45.47
20612;BME280;10465;42.686;23.364;2024-03-23T08:09:55;94977.72;;;12.06;46.05
20612;BME280;10465;42.686;23.364;2024-03-23T08:12:20;94986.00;;;12.30;46.32
20612;BME280;10465;42.686;23.364;2024-03-23T08:14:46;94998.03;;;12.54;45.36
20612;BME280;10465;42.686;23.364;2024-03-23T08:17:11;94993.97;;;12.56;45.22
20612;BME280;10465;42.686;23.364;2024-03-23T08:19:36;94984.91;;;12.57;44.81
20612;BME280;10465;42.686;23.364;2024-03-23T08:22:02;94985.81;;;12.79;44.56
20612;BME280;10465;42.686;23.364;2024-03-23T08:24:27;94984.38;;;12.90;44.23
20612;BME280;10465;42.686;23.364;2024-03-23T08:26:54;94986.44;;;12.93;44.15
20612;BME280;10465;42.686;23.364;2024-03-23T08:29:20;94968.13;;;12.92;45.20
20612;BME280;10465;42.686;23.364;2024-03-23T08:31:45;94989.97;;;13.06;43.53
20612;BME280;10465;42.686;23.364;2024-03-23T08:34:10;94983.75;;;13.02;42.41
20612;BME280;10465;42.686;23.364;2024-03-23T08:36:36;94983.53;;;13.16;42.37
20612;BME280;10465;42.686;23.364;2024-03-23T08:39:01;94955.59;;;13.09;41.71
20612;BME280;10465;42.686;23.364;2024-03-23T08:41:27;94978.91;;;13.51;41.03
20612;BME280;10465;42.686;23.364;2024-03-23T08:43:52;94965.94;;;13.79;40.33
20612;BME280;10465;42.686;23.364;2024-03-23T08:46:18;94950.25;;;13.86;39.97
20612;BME280;10465;42.686;23.364;2024-03-23T08:48:44;94948.69;;;14.06;40.08
20612;BME280;10465;42.686;23.364;2024-03-23T08:51:15;94961.53;;;14.25;39.90
20612;BME280;10465;42.686;23.364;2024-03-23T08:53:41;94959.41;;;14.39;39.03
20612;BME280;10465;42.686;23.364;2024-03-23T08:56:07;94914.31;;;14.34;38.38
20612;BME280;10465;42.686;23.364;2024-03-23T08:58:34;94950.69;;;14.72;38.17
20612;BME280;10465;42.686;23.364;2024-03-23T09:01:06;94955.00;;;14.76;39.02
20612;BME280;10465;42.686;23.364;2024-03-23T09:03:31;94941.09;;;14.58;39.67
20612;BME280;10465;42.686;23.364;2024-03-23T09:05:57;94941.88;;;14.59;39.20
20612;BME280;10465;42.686;23.364;2024-03-23T09:08:24;94933.25;;;14.87;38.06
20612;BME280;10465;42.686;23.364;2024-03-23T09:10:49;94928.31;;;14.97;37.77
20612;BME280;10465;42.686;23.364;2024-03-23T09:13:15;94926.44;;;15.10;37.70
20612;BME280;10465;42.686;23.364;2024-03-23T09:15:49;94921.88;;;15.23;37.35
20612;BME280;10465;42.686;23.364;2024-03-23T09:18:15;94914.34;;;15.37;36.89
20612;BME280;10465;42.686;23.364;2024-03-23T09:20:40;94919.69;;;15.49;37.36
20612;BME280;10465;42.686;23.364;2024-03-23T09:23:06;94918.22;;;15.64;36.80
20612;BME280;10465;42.686;23.364;2024-03-23T09:25:31;94888.88;;;15.64;36.33
20612;BME280;10465;42.686;23.364;2024-03-23T09:27:58;94911.78;;;15.77;37.07
20612;BME280;10465;42.686;23.364;2024-03-23T09:30:23;94876.56;;;15.72;37.34
20612;BME280;10465;42.686;23.364;2024-03-23T09:32:49;94875.09;;;15.74;37.52
20612;BME280;10465;42.686;23.364;2024-03-23T09:35:14;94894.44;;;15.71;37.56
20612;BME280;10465;42.686;23.364;2024-03-23T09:37:40;94841.13;;;15.22;37.33
20612;BME280;10465;42.686;23.364;2024-03-23T09:40:11;94882.09;;;15.79;38.24
20612;BME280;10465;42.686;23.364;2024-03-23T09:42:37;94875.47;;;16.01;37.45
20612;BME280;10465;42.686;23.364;2024-03-23T09:45:11;94880.97;;;16.20;37.87
20612;BME280;10465;42.686;23.364;2024-03-23T09:47:40;94854.13;;;16.01;37.92
20612;BME280;10465;42.686;23.364;2024-03-23T09:50:07;94872.28;;;16.23;37.31
20612;BME280;10465;42.686;23.364;2024-03-23T09:52:33;94854.91;;;16.29;36.54
20612;BME280;10465;42.686;23.364;2024-03-23T09:54:58;94861.50;;;16.64;36.75
20612;BME280;10465;42.686;23.364;2024-03-23T09:57:23;94863.72;;;16.90;36.30
20612;BME280;10465;42.686;23.364;2024-03-23T09:59:49;94855.25;;;17.19;35.16
20612;BME280;10465;42.686;23.364;2024-03-23T10:02:15;94833.19;;;17.22;35.36
20612;BME280;10465;42.686;23.364;2024-03-23T10:04:42;94847.03;;;17.44;35.40
20612;BME280;10465;42.686;23.364;2024-03-23T10:07:17;94838.19;;;17.59;34.49
20612;BME280;10465;42.686;23.364;2024-03-23T10:09:43;94828.81;;;17.69;35.06
20612;BME280;10465;42.686;23.364;2024-03-23T10:12:12;94816.84;;;17.63;33.61
20612;BME280;10465;42.686;23.364;2024-03-23T10:14:41;94830.34;;;17.86;33.63
20612;BME280;10465;42.686;23.364;2024-03-23T10:17:17;94834.03;;;17.97;31.65
20612;BME280;10465;42.686;23.364;2024-03-23T10:19:46;94829.88;;;17.99;32.01
20612;BME280;10465;42.686;23.364;2024-03-23T10:22:23;94804.56;;;17.97;31.87
20612;BME280;10465;42.686;23.364;2024-03-23T10:24:49;94818.28;;;18.15;31.09
20612;BME280;10465;42.686;23.364;2024-03-23T10:27:19;94809.69;;;18.25;31.87
20612;BME280;10465;42.686;23.364;2024-03-23T10:29:45;94790.03;;;17.98;32.32
20612;BME280;10465;42.686;23.364;2024-03-23T10:32:12;94807.94;;;17.94;32.35
20612;BME280;10465;42.686;23.364;2024-03-23T10:34:37;94799.69;;;18.02;32.20
20612;BME280;10465;42.686;23.364;2024-03-23T10:37:04;94770.66;;;17.85;31.79
20612;BME280;10465;42.686;23.364;2024-03-23T10:39:34;94787.72;;;18.16;31.78
20612;BME280;10465;42.686;23.364;2024-03-23T10:42:04;94769.66;;;18.13;31.28
20612;BME280;10465;42.686;23.364;2024-03-23T10:44:31;94724.28;;;18.00;30.69
20612;BME280;10465;42.686;23.364;2024-03-23T10:47:00;94766.53;;;18.30;30.51
20612;BME280;10465;42.686;23.364;2024-03-23T10:49:31;94769.50;;;18.25;31.02
20612;BME280;10465;42.686;23.364;2024-03-23T10:51:58;94763.34;;;18.44;30.58
20612;BME280;10465;42.686;23.364;2024-03-23T10:54:24;94739.97;;;18.44;29.57
20612;BME280;10465;42.686;23.364;2024-03-23T10:59:33;94679.63;;;18.54;29.27
20612;BME280;10465;42.686;23.364;2024-03-23T11:02:01;94710.47;;;18.90;28.84
20612;BME280;10465;42.686;23.364;2024-03-23T11:04:36;94712.50;;;19.27;28.39
20612;BME280;10465;42.686;23.364;2024-03-23T11:07:28;94697.84;;;19.51;28.78
20612;BME280;10465;42.686;23.364;2024-03-23T11:09:54;94711.44;;;19.62;28.48
20612;BME280;10465;42.686;23.364;2024-03-23T11:14:45;94699.47;;;19.59;27.78
20612;BME280;10465;42.686;23.364;2024-03-23T11:17:11;94717.28;;;19.71;27.72
20612;BME280;10465;42.686;23.364;2024-03-23T11:19:37;94692.81;;;19.80;27.46
20612;BME280;10465;42.686;23.364;2024-03-23T11:22:03;94693.25;;;19.82;27.48
20612;BME280;10465;42.686;23.364;2024-03-23T11:24:30;94682.53;;;19.85;27.48
20612;BME280;10465;42.686;23.364;2024-03-23T11:26:56;94689.97;;;19.99;27.25
20612;BME280;10465;42.686;23.364;2024-03-23T11:29:27;94668.63;;;19.76;27.32
20612;BME280;10465;42.686;23.364;2024-03-23T11:31:53;94679.84;;;19.85;27.18
20612;BME280;10465;42.686;23.364;2024-03-23T11:34:19;94672.06;;;19.76;27.84
20612;BME280;10465;42.686;23.364;2024-03-23T11:36:45;94669.13;;;19.85;27.69
20612;BME280;10465;42.686;23.364;2024-03-23T11:39:12;94649.44;;;19.74;27.86
20612;BME280;10465;42.686;23.364;2024-03-23T11:41:56;94663.06;;;19.95;27.19
20612;BME280;10465;42.686;23.364;2024-03-23T11:44:27;94656.47;;;20.30;26.51
20612;BME280;10465;42.686;23.364;2024-03-23T11:46:53;94649.00;;;20.57;26.08
20612;BME280;10465;42.686;23.364;2024-03-23T11:49:22;94645.69;;;20.78;25.45
20612;BME280;10465;42.686;23.364;2024-03-23T11:51:49;94621.88;;;20.80;25.40
20612;BME280;10465;42.686;23.364;2024-03-23T11:54:33;94625.78;;;20.93;25.50
20612;BME280;10465;42.686;23.364;2024-03-23T11:57:08;94595.00;;;20.84;25.48
20612;BME280;10465;42.686;23.364;2024-03-23T11:59:38;94604.69;;;20.99;24.90
20612;BME280;10465;42.686;23.364;2024-03-23T12:02:08;94608.66;;;21.23;25.01
20612;BME280;10465;42.686;23.364;2024-03-23T12:04:34;94600.53;;;21.12;25.08
20612;BME280;10465;42.686;23.364;2024-03-23T12:07:13;94612.47;;;21.22;24.98
20612;BME280;10465;42.686;23.364;2024-03-23T12:09:39;94583.63;;;21.19;24.99
20612;BME280;10465;42.686;23.364;2024-03-23T12:12:15;94600.13;;;21.14;25.13
20612;BME280;10465;42.686;23.364;2024-03-23T12:14:44;94588.91;;;20.94;25.52
20612;BME280;10465;42.686;23.364;2024-03-23T12:17:10;94582.09;;;19.97;26.51
20612;BME280;10465;42.686;23.364;2024-03-23T12:19:36;94571.88;;;20.17;25.96
20612;BME280;10465;42.686;23.364;2024-03-23T12:22:03;94581.66;;;20.39;26.01
20612;BME280;10465;42.686;23.364;2024-03-23T12:24:29;94548.72;;;20.53;26.24
20612;BME280;10465;42.686;23.364;2024-03-23T12:26:55;94581.59;;;20.91;25.58
20612;BME280;10465;42.686;23.364;2024-03-23T12:29:20;94576.22;;;20.98;24.85
20612;BME280;10465;42.686;23.364;2024-03-23T12:31:45;94565.19;;;21.21;24.47
20612;BME280;10465;42.686;23.364;2024-03-23T12:34:11;94563.66;;;21.27;24.31
20612;BME280;10465;42.686;23.364;2024-03-23T12:36:36;94561.34;;;21.26;23.75
20612;BME280;10465;42.686;23.364;2024-03-23T12:39:02;94561.03;;;20.51;23.75
20612;BME280;10465;42.686;23.364;2024-03-23T12:41:28;94553.06;;;20.72;23.85
20612;BME280;10465;42.686;23.364;2024-03-23T12:43:53;94550.03;;;20.84;24.21
20612;BME280;10465;42.686;23.364;2024-03-23T12:46:18;94542.41;;;20.97;24.28
20612;BME280;10465;42.686;23.364;2024-03-23T12:48:45;94543.88;;;20.80;23.98
20612;BME280;10465;42.686;23.364;2024-03-23T12:51:10;94539.75;;;21.04;23.60
20612;BME280;10465;42.686;23.364;2024-03-23T12:53:35;94527.78;;;20.91;23.87
20612;BME280;10465;42.686;23.364;2024-03-23T12:56:01;94522.44;;;20.94;24.44
20612;BME280;10465;42.686;23.364;2024-03-23T12:58:26;94521.94;;;20.71;24.43
20612;BME280;10465;42.686;23.364;2024-03-23T13:00:52;94519.28;;;20.74;24.59
20612;BME280;10465;42.686;23.364;2024-03-23T13:03:17;94518.94;;;20.87;24.38
20612;BME280;10465;42.686;23.364;2024-03-23T13:05:43;94511.63;;;20.87;24.28
20612;BME280;10465;42.686;23.364;2024-03-23T13:08:08;94496.63;;;20.83;23.92
20612;BME280;10465;42.686;23.364;2024-03-23T13:10:34;94508.19;;;20.94;23.48
20612;BME280;10465;42.686;23.364;2024-03-23T13:12:59;94508.63;;;21.07;23.74
20612;BME280;10465;42.686;23.364;2024-03-23T13:15:24;94490.91;;;21.06;24.17
20612;BME280;10465;42.686;23.364;2024-03-23T13:17:50;94493.66;;;21.23;24.74
20612;BME280;10465;42.686;23.364;2024-03-23T13:20:17;94495.22;;;21.32;24.97
20612;BME280;10465;42.686;23.364;2024-03-23T13:22:42;94494.81;;;21.26;23.79
20612;BME280;10465;42.686;23.364;2024-03-23T13:25:08;94463.25;;;21.05;23.83
20612;BME280;10465;42.686;23.364;2024-03-23T13:27:33;94446.69;;;20.96;23.75
20612;BME280;10465;42.686;23.364;2024-03-23T13:29:59;94480.25;;;21.45;23.46
20612;BME280;10465;42.686;23.364;2024-03-23T13:32:24;94479.50;;;21.55;23.48
20612;BME280;10465;42.686;23.364;2024-03-23T13:34:49;94486.06;;;21.76;23.07
20612;BME280;10465;42.686;23.364;2024-03-23T13:37:15;94470.63;;;21.83;23.03
20612;BME280;10465;42.686;23.364;2024-03-23T13:39:41;94481.41;;;22.01;23.20
20612;BME280;10465;42.686;23.364;2024-03-23T13:42:09;94450.25;;;21.93;23.89
20612;BME280;10465;42.686;23.364;2024-03-23T13:44:35;94462.56;;;21.97;23.66
20612;BME280;10465;42.686;23.364;2024-03-23T13:47:01;94464.09;;;22.06;23.66
20612;BME280;10465;42.686;23.364;2024-03-23T13:49:30;94446.00;;;21.95;23.40